Yue Chi — VRBS2 — position and weather

sailwx.info

Track history (hours):
 
Tides and Currents Weather Stations Pressure Air Temp Water Temp Dewpoint Dewpoint Depression Visibility Wind Speed Wind Dir Waves Ship Positions

Yue Chi

Last reported at 2018-Jul-16 09:34 UTC. Time now 2018-Jul-16 10:30 UTC.
Position N 35°01' E 139°37'.

Length 187 m; draft 7.5 m.

Type: Ship (hazmat cat B). MMSI: 477105700.

Date/timePositionNaut miles runAvg speedWind from/ knotsBaromVisibWave heightAir tempDewpointWater temp
2018-Jul-16 09:34N 35°01' E 139°37'112.0
2018-Jul-16 09:29N 35°02' E 139°38'612.4
2018-Jul-16 09:01N 35°05' E 139°43'611.7
2018-Jul-16 08:30N 35°11' E 139°46'510.3
2018-Jul-16 08:00N 35°16' E 139°45'511.0
2018-Jul-16 07:31N 35°21' E 139°43'510.6
2018-Jul-16 07:01N 35°26' E 139°45'3 2.2
2018-Jul-16 05:36N 35°28' E 139°48'0 0.0
2018-Jul-16 05:27N 35°28' E 139°48'0 0.0
2018-Jul-16 04:57N 35°28' E 139°48'0 0.0
2018-Jul-16 04:27N 35°28' E 139°48'0 0.0
2018-Jul-16 04:00N 35°28' E 139°48'0 0.0
2018-Jul-16 03:30N 35°28' E 139°48'0 0.1
2018-Jul-16 02:57N 35°28' E 139°48'0 0.0
2018-Jul-16 02:30N 35°28' E 139°48'0 0.0
2018-Jul-16 02:00N 35°28' E 139°48'0 0.0
2018-Jul-16 01:30N 35°28' E 139°48'0 0.1
2018-Jul-16 00:48N 35°28' E 139°48'0 1.4
2018-Jul-16 00:30N 35°29' E 139°48'3 5.3
2018-Jul-16 00:00N 35°30' E 139°45'0 0.0
2018-Jul-15 05:28N 35°30' E 139°45'2 4.9
2018-Jul-15 04:59N 35°29' E 139°42'3 6.2
2018-Jul-15 04:30N 35°27' E 139°45'1 2.0
2018-Jul-15 03:59N 35°28' E 139°47'0 0.2
2018-Jul-15 03:23N 35°27' E 139°47'0 0.1
2018-Jul-15 02:35N 35°27' E 139°47'0 0.5
2018-Jul-15 02:29N 35°27' E 139°47'0 0.1
2018-Jul-15 01:59N 35°27' E 139°47'0 0.1
2018-Jul-15 01:29N 35°27' E 139°47'0 0.0
2018-Jul-15 00:59N 35°27' E 139°47'0 0.0
2018-Jul-15 00:26N 35°27' E 139°47'0 0.0
2018-Jul-14 23:59N 35°27' E 139°47'0 0.0
2018-Jul-14 23:29N 35°27' E 139°47'0 0.0
2018-Jul-14 22:59N 35°27' E 139°47'0 0.0
2018-Jul-14 21:02N 35°28' E 139°47'0 0.2
2018-Jul-14 20:53N 35°28' E 139°47'0 0.3
2018-Jul-14 20:29N 35°28' E 139°47'0 0.0
2018-Jul-14 19:59N 35°28' E 139°47'0 0.0
2018-Jul-14 19:23N 35°28' E 139°47'0 0.0
2018-Jul-14 18:59N 35°28' E 139°47'0 0.0
2018-Jul-14 18:29N 35°28' E 139°47'0 0.0
2018-Jul-14 17:59N 35°28' E 139°47'0 0.0
2018-Jul-14 17:29N 35°28' E 139°47'0 0.0
2018-Jul-14 16:53N 35°28' E 139°47'0 0.1
2018-Jul-14 16:29N 35°28' E 139°47'0 0.2
2018-Jul-14 15:56N 35°28' E 139°47'0 0.1
2018-Jul-14 15:17N 35°27' E 139°47'0 0.0
2018-Jul-14 14:35N 35°27' E 139°47'0 0.1
2018-Jul-14 14:29N 35°27' E 139°47'0 0.0
2018-Jul-14 13:29N 35°27' E 139°47'0 0.0
2018-Jul-14 12:59N 35°27' E 139°47'0 0.1
2018-Jul-14 12:29N 35°27' E 139°47'0 0.1
2018-Jul-14 11:59N 35°27' E 139°47'0 0.1
2018-Jul-14 11:29N 35°27' E 139°47'0 0.1
2018-Jul-14 10:59N 35°27' E 139°47'0 0.1
2018-Jul-14 10:29N 35°27' E 139°47'0 0.1
2018-Jul-14 09:59N 35°28' E 139°47'0 0.2
2018-Jul-14 09:29N 35°28' E 139°47'0 0.1
2018-Jul-14 08:59N 35°28' E 139°47'0 0.0
2018-Jul-14 08:26N 35°28' E 139°47'0 0.0
2018-Jul-14 07:59N 35°28' E 139°47'0 0.1
2018-Jul-14 07:29N 35°28' E 139°47'0 0.0
2018-Jul-14 06:59N 35°28' E 139°47'0 0.0
2018-Jul-14 06:23N 35°28' E 139°47'0 0.0
2018-Jul-14 05:59N 35°28' E 139°47'0 0.0
2018-Jul-14 05:26N 35°28' E 139°47'0 0.1
2018-Jul-14 04:59N 35°28' E 139°47'0 0.1
2018-Jul-14 03:08N 35°27' E 139°47'0 0.0
2018-Jul-14 02:59N 35°27' E 139°47'0 0.0
2018-Jul-14 02:23N 35°27' E 139°47'0 0.0
2018-Jul-14 01:59N 35°27' E 139°47'0 0.0
2018-Jul-14 01:29N 35°27' E 139°47'0 0.0
2018-Jul-14 00:59N 35°27' E 139°47'0 0.0
2018-Jul-14 00:29N 35°27' E 139°47'0 0.0
2018-Jul-13 23:59N 35°27' E 139°47'0 0.1
2018-Jul-13 23:29N 35°27' E 139°47'0 0.0
2018-Jul-13 22:59N 35°27' E 139°47'0 0.0
2018-Jul-13 22:29N 35°27' E 139°47'0 0.1
2018-Jul-13 21:56N 35°27' E 139°47'0 0.1
2018-Jul-13 21:23N 35°28' E 139°47'0 0.2
2018-Jul-13 20:59N 35°28' E 139°47'0 0.1
2018-Jul-13 20:29N 35°28' E 139°47'0 0.0
2018-Jul-13 19:59N 35°28' E 139°47'0 0.0
2018-Jul-13 19:29N 35°28' E 139°47'0 0.0
2018-Jul-13 18:59N 35°28' E 139°47'0 0.0
2018-Jul-13 18:29N 35°28' E 139°47'0 0.0
2018-Jul-13 17:59N 35°28' E 139°47'0 0.0
2018-Jul-13 17:23N 35°28' E 139°47'0 0.0
2018-Jul-13 16:59N 35°28' E 139°47'0 0.1
2018-Jul-13 16:29N 35°28' E 139°47'0 0.1
2018-Jul-13 15:56N 35°28' E 139°47'0 0.1
2018-Jul-13 15:29N 35°28' E 139°47'0 0.1
2018-Jul-13 14:59N 35°28' E 139°47'0 0.1
2018-Jul-13 13:47N 35°27' E 139°47'0 0.0
2018-Jul-13 13:17N 35°27' E 139°47'0 0.0
2018-Jul-13 12:59N 35°27' E 139°47'0 0.0
2018-Jul-13 12:29N 35°27' E 139°47'0 0.0
2018-Jul-13 11:59N 35°27' E 139°47'0 0.1
2018-Jul-13 11:29N 35°27' E 139°47'0 0.1
2018-Jul-13 10:50N 35°27' E 139°47'0 0.1
2018-Jul-13 10:26N 35°27' E 139°47'0 0.0
2018-Jul-13 09:59N 35°27' E 139°47'0 0.1
2018-Jul-13 09:29N 35°27' E 139°47'0 0.1
2018-Jul-13 08:59N 35°27' E 139°47'0 0.0
2018-Jul-13 08:23N 35°28' E 139°47'0 0.0
2018-Jul-13 07:59N 35°28' E 139°47'0 0.1
2018-Jul-13 07:29N 35°28' E 139°47'0 0.0
2018-Jul-13 06:59N 35°28' E 139°47'0 0.1
2018-Jul-13 06:29N 35°28' E 139°47'0 0.0
2018-Jul-13 05:59N 35°28' E 139°47'0 0.0
2018-Jul-13 05:29N 35°28' E 139°47'0 0.1
2018-Jul-13 04:59N 35°28' E 139°47'0 0.0
2018-Jul-13 04:23N 35°28' E 139°47'0 0.1
2018-Jul-13 03:59N 35°28' E 139°47'0 0.1
2018-Jul-13 03:29N 35°28' E 139°47'0 0.1
2018-Jul-13 02:53N 35°28' E 139°47'0 0.1
2018-Jul-13 02:02N 35°27' E 139°47'0 0.1
2018-Jul-13 01:41N 35°27' E 139°47'0 0.0
2018-Jul-13 01:29N 35°27' E 139°47'0 0.3
2018-Jul-13 00:59N 35°28' E 139°47'1 1.7
2018-Jul-13 00:29N 35°28' E 139°47'3 5.2
2018-Jul-13 00:00N 35°30' E 139°45'1 0.9
2018-Jul-12 23:26N 35°30' E 139°45'0 0.0
2018-Jul-12 06:24N 35°30' E 139°45'1 2.9
2018-Jul-12 06:00N 35°30' E 139°43'2 4.9
2018-Jul-12 05:30N 35°27' E 139°43'2 2.8
2018-Jul-12 04:52N 35°26' E 139°45'0 0.0
2018-Jul-12 04:25N 35°26' E 139°45'0 0.0
2018-Jul-12 03:58N 35°26' E 139°45'0 0.1
2018-Jul-12 03:25N 35°26' E 139°45'0 0.1
2018-Jul-12 02:58N 35°26' E 139°45'0 0.1
2018-Jul-12 02:28N 35°26' E 139°45'0 0.2
2018-Jul-12 01:58N 35°26' E 139°45'1 1.2
2018-Jul-12 01:30N 35°26' E 139°45'4 8.1
2018-Jul-12 01:00N 35°22' E 139°45'510.4
2018-Jul-12 00:30N 35°17' E 139°46'510.2
2018-Jul-12 00:00N 35°12' E 139°47'4 8.0
2018-Jul-11 23:30N 35°08' E 139°46'2 4.8
2018-Jul-11 23:00N 35°05' E 139°45'2 5.1
2018-Jul-11 22:30N 35°04' E 139°43'3 6.7
2018-Jul-11 22:00N 35°02' E 139°39'3 6.0
2018-Jul-11 21:30N 34°60' E 139°36'3 6.1
2018-Jul-11 21:00N 34°58' E 139°33'3 6.0
2018-Jul-11 20:30N 34°57' E 139°30'  
Track history (hours):
 
Tides and Currents Weather Stations Pressure Air Temp Water Temp Dewpoint Dewpoint Depression Visibility Wind Speed Wind Dir Waves Ship Positions

Yue Chi

Last reported at 2018-Jul-16 09:34 UTC. Time now 2018-Jul-16 10:30 UTC.
Position N 35°01' E 139°37'.

Length 187 m; draft 7.5 m.

Type: Ship (hazmat cat B). MMSI: 477105700.

Date/timePositionNaut miles runAvg speedWind from/ knotsBaromVisibWave heightAir tempDewpointWater temp
2018-Jul-16 09:34N 35°01' E 139°37'112.0
2018-Jul-16 09:29N 35°02' E 139°38'612.4
2018-Jul-16 09:01N 35°05' E 139°43'611.7
2018-Jul-16 08:30N 35°11' E 139°46'510.3
2018-Jul-16 08:00N 35°16' E 139°45'511.0
2018-Jul-16 07:31N 35°21' E 139°43'510.6
2018-Jul-16 07:01N 35°26' E 139°45'3 2.2
2018-Jul-16 05:36N 35°28' E 139°48'0 0.0
2018-Jul-16 05:27N 35°28' E 139°48'0 0.0
2018-Jul-16 04:57N 35°28' E 139°48'0 0.0
2018-Jul-16 04:27N 35°28' E 139°48'0 0.0
2018-Jul-16 04:00N 35°28' E 139°48'0 0.0
2018-Jul-16 03:30N 35°28' E 139°48'0 0.1
2018-Jul-16 02:57N 35°28' E 139°48'0 0.0
2018-Jul-16 02:30N 35°28' E 139°48'0 0.0
2018-Jul-16 02:00N 35°28' E 139°48'0 0.0
2018-Jul-16 01:30N 35°28' E 139°48'0 0.1
2018-Jul-16 00:48N 35°28' E 139°48'0 1.4
2018-Jul-16 00:30N 35°29' E 139°48'3 5.3
2018-Jul-16 00:00N 35°30' E 139°45'0 0.0
2018-Jul-15 05:28N 35°30' E 139°45'2 4.9
2018-Jul-15 04:59N 35°29' E 139°42'3 6.2
2018-Jul-15 04:30N 35°27' E 139°45'1 2.0
2018-Jul-15 03:59N 35°28' E 139°47'0 0.2
2018-Jul-15 03:23N 35°27' E 139°47'0 0.1
2018-Jul-15 02:35N 35°27' E 139°47'0 0.5
2018-Jul-15 02:29N 35°27' E 139°47'0 0.1
2018-Jul-15 01:59N 35°27' E 139°47'0 0.1
2018-Jul-15 01:29N 35°27' E 139°47'0 0.0
2018-Jul-15 00:59N 35°27' E 139°47'0 0.0
2018-Jul-15 00:26N 35°27' E 139°47'0 0.0
2018-Jul-14 23:59N 35°27' E 139°47'0 0.0
2018-Jul-14 23:29N 35°27' E 139°47'0 0.0
2018-Jul-14 22:59N 35°27' E 139°47'0 0.0
2018-Jul-14 21:02N 35°28' E 139°47'0 0.2
2018-Jul-14 20:53N 35°28' E 139°47'0 0.3
2018-Jul-14 20:29N 35°28' E 139°47'0 0.0
2018-Jul-14 19:59N 35°28' E 139°47'0 0.0
2018-Jul-14 19:23N 35°28' E 139°47'0 0.0
2018-Jul-14 18:59N 35°28' E 139°47'0 0.0
2018-Jul-14 18:29N 35°28' E 139°47'0 0.0
2018-Jul-14 17:59N 35°28' E 139°47'0 0.0
2018-Jul-14 17:29N 35°28' E 139°47'0 0.0
2018-Jul-14 16:53N 35°28' E 139°47'0 0.1
2018-Jul-14 16:29N 35°28' E 139°47'0 0.2
2018-Jul-14 15:56N 35°28' E 139°47'0 0.1
2018-Jul-14 15:17N 35°27' E 139°47'0 0.0
2018-Jul-14 14:35N 35°27' E 139°47'0 0.1
2018-Jul-14 14:29N 35°27' E 139°47'0 0.0
2018-Jul-14 13:29N 35°27' E 139°47'0 0.0
2018-Jul-14 12:59N 35°27' E 139°47'0 0.1
2018-Jul-14 12:29N 35°27' E 139°47'0 0.1
2018-Jul-14 11:59N 35°27' E 139°47'0 0.1
2018-Jul-14 11:29N 35°27' E 139°47'0 0.1
2018-Jul-14 10:59N 35°27' E 139°47'0 0.1
2018-Jul-14 10:29N 35°27' E 139°47'0 0.1
2018-Jul-14 09:59N 35°28' E 139°47'0 0.2
2018-Jul-14 09:29N 35°28' E 139°47'0 0.1
2018-Jul-14 08:59N 35°28' E 139°47'0 0.0
2018-Jul-14 08:26N 35°28' E 139°47'0 0.0
2018-Jul-14 07:59N 35°28' E 139°47'0 0.1
2018-Jul-14 07:29N 35°28' E 139°47'0 0.0
2018-Jul-14 06:59N 35°28' E 139°47'0 0.0
2018-Jul-14 06:23N 35°28' E 139°47'0 0.0
2018-Jul-14 05:59N 35°28' E 139°47'0 0.0
2018-Jul-14 05:26N 35°28' E 139°47'0 0.1
2018-Jul-14 04:59N 35°28' E 139°47'0 0.1
2018-Jul-14 03:08N 35°27' E 139°47'0 0.0
2018-Jul-14 02:59N 35°27' E 139°47'0 0.0
2018-Jul-14 02:23N 35°27' E 139°47'0 0.0
2018-Jul-14 01:59N 35°27' E 139°47'0 0.0
2018-Jul-14 01:29N 35°27' E 139°47'0 0.0
2018-Jul-14 00:59N 35°27' E 139°47'0 0.0
2018-Jul-14 00:29N 35°27' E 139°47'0 0.0
2018-Jul-13 23:59N 35°27' E 139°47'0 0.1
2018-Jul-13 23:29N 35°27' E 139°47'0 0.0
2018-Jul-13 22:59N 35°27' E 139°47'0 0.0
2018-Jul-13 22:29N 35°27' E 139°47'0 0.1
2018-Jul-13 21:56N 35°27' E 139°47'0 0.1
2018-Jul-13 21:23N 35°28' E 139°47'0 0.2
2018-Jul-13 20:59N 35°28' E 139°47'0 0.1
2018-Jul-13 20:29N 35°28' E 139°47'0 0.0
2018-Jul-13 19:59N 35°28' E 139°47'0 0.0
2018-Jul-13 19:29N 35°28' E 139°47'0 0.0
2018-Jul-13 18:59N 35°28' E 139°47'0 0.0
2018-Jul-13 18:29N 35°28' E 139°47'0 0.0
2018-Jul-13 17:59N 35°28' E 139°47'0 0.0
2018-Jul-13 17:23N 35°28' E 139°47'0 0.0
2018-Jul-13 16:59N 35°28' E 139°47'0 0.1
2018-Jul-13 16:29N 35°28' E 139°47'0 0.1
2018-Jul-13 15:56N 35°28' E 139°47'0 0.1
2018-Jul-13 15:29N 35°28' E 139°47'0 0.1
2018-Jul-13 14:59N 35°28' E 139°47'0 0.1
2018-Jul-13 13:47N 35°27' E 139°47'0 0.0
2018-Jul-13 13:17N 35°27' E 139°47'0 0.0
2018-Jul-13 12:59N 35°27' E 139°47'0 0.0
2018-Jul-13 12:29N 35°27' E 139°47'0 0.0
2018-Jul-13 11:59N 35°27' E 139°47'0 0.1
2018-Jul-13 11:29N 35°27' E 139°47'0 0.1
2018-Jul-13 10:50N 35°27' E 139°47'0 0.1
2018-Jul-13 10:26N 35°27' E 139°47'0 0.0
2018-Jul-13 09:59N 35°27' E 139°47'0 0.1
2018-Jul-13 09:29N 35°27' E 139°47'0 0.1
2018-Jul-13 08:59N 35°27' E 139°47'0 0.0
2018-Jul-13 08:23N 35°28' E 139°47'0 0.0
2018-Jul-13 07:59N 35°28' E 139°47'0 0.1
2018-Jul-13 07:29N 35°28' E 139°47'0 0.0
2018-Jul-13 06:59N 35°28' E 139°47'0 0.1
2018-Jul-13 06:29N 35°28' E 139°47'0 0.0
2018-Jul-13 05:59N 35°28' E 139°47'0 0.0
2018-Jul-13 05:29N 35°28' E 139°47'0 0.1
2018-Jul-13 04:59N 35°28' E 139°47'0 0.0
2018-Jul-13 04:23N 35°28' E 139°47'0 0.1
2018-Jul-13 03:59N 35°28' E 139°47'0 0.1
2018-Jul-13 03:29N 35°28' E 139°47'0 0.1
2018-Jul-13 02:53N 35°28' E 139°47'0 0.1
2018-Jul-13 02:02N 35°27' E 139°47'0 0.1
2018-Jul-13 01:41N 35°27' E 139°47'0 0.0
2018-Jul-13 01:29N 35°27' E 139°47'0 0.3
2018-Jul-13 00:59N 35°28' E 139°47'1 1.7
2018-Jul-13 00:29N 35°28' E 139°47'3 5.2
2018-Jul-13 00:00N 35°30' E 139°45'1 0.9
2018-Jul-12 23:26N 35°30' E 139°45'0 0.0
2018-Jul-12 06:24N 35°30' E 139°45'1 2.9
2018-Jul-12 06:00N 35°30' E 139°43'2 4.9
2018-Jul-12 05:30N 35°27' E 139°43'2 2.8
2018-Jul-12 04:52N 35°26' E 139°45'0 0.0
2018-Jul-12 04:25N 35°26' E 139°45'0 0.0
2018-Jul-12 03:58N 35°26' E 139°45'0 0.1
2018-Jul-12 03:25N 35°26' E 139°45'0 0.1
2018-Jul-12 02:58N 35°26' E 139°45'0 0.1
2018-Jul-12 02:28N 35°26' E 139°45'0 0.2
2018-Jul-12 01:58N 35°26' E 139°45'1 1.2
2018-Jul-12 01:30N 35°26' E 139°45'4 8.1
2018-Jul-12 01:00N 35°22' E 139°45'510.4
2018-Jul-12 00:30N 35°17' E 139°46'510.2
2018-Jul-12 00:00N 35°12' E 139°47'4 8.0
2018-Jul-11 23:30N 35°08' E 139°46'2 4.8
2018-Jul-11 23:00N 35°05' E 139°45'2 5.1
2018-Jul-11 22:30N 35°04' E 139°43'3 6.7
2018-Jul-11 22:00N 35°02' E 139°39'3 6.0
2018-Jul-11 21:30N 34°60' E 139°36'3 6.1
2018-Jul-11 21:00N 34°58' E 139°33'3 6.0
2018-Jul-11 20:30N 34°57' E 139°30'  

Dump ship's entire track history